Time;durP1;ratioP1;P1;durP2;ratioP2;P2;SDS_P1;SDS_P2;PMS_P1;PMS_P2;Temp;Humidity;BMP_temperature;BMP_pressure;BME280_temperature;BME280_humidity;BME280_pressure;Samples;Min_cycle;Max_cycle;Signal;HPM_P1;HPM_P2
2022/01/09 00:00:13;;;;;;;0.30;0.30;;;5.30;93.40;;;;;;6158241;23;20573;-81
2022/01/09 00:02:39;;;;;;;0.35;0.25;;;5.30;93.30;;;;;;6157685;23;20008;-81
2022/01/09 00:05:06;;;;;;;0.20;0.20;;;5.20;93.30;;;;;;6155080;23;20005;-81
2022/01/09 00:07:31;;;;;;;0.50;0.30;;;5.20;93.40;;;;;;6131118;23;20017;-80
2022/01/09 00:09:57;;;;;;;0.20;0.20;;;5.20;93.40;;;;;;6156220;23;20064;-83
2022/01/09 00:12:24;;;;;;;0.20;0.20;;;5.20;93.40;;;;;;6157795;23;20024;-82
2022/01/09 00:14:51;;;;;;;0.22;0.22;;;5.10;93.40;;;;;;6131809;23;20080;-83
2022/01/09 00:17:17;;;;;;;0.25;0.10;;;5.20;93.40;;;;;;6133346;23;20009;-82
2022/01/09 00:19:43;;;;;;;0.17;0.17;;;5.20;93.40;;;;;;6157916;23;20016;-82
2022/01/09 00:22:08;;;;;;;0.28;0.20;;;5.20;93.40;;;;;;6157864;23;20033;-82
2022/01/09 00:24:34;;;;;;;0.20;0.20;;;5.20;93.40;;;;;;6157803;23;20025;-82
2022/01/09 00:27:00;;;;;;;0.40;0.40;;;5.20;93.40;;;;;;6154650;23;20044;-82
2022/01/09 00:29:26;;;;;;;0.40;0.40;;;5.20;93.40;;;;;;6157892;23;20009;-82
2022/01/09 00:31:51;;;;;;;0.20;0.20;;;5.20;93.40;;;;;;6184037;23;19997;-82
2022/01/09 00:34:17;;;;;;;0.20;0.20;;;5.20;93.40;;;;;;6158295;23;20001;-82
2022/01/09 00:36:43;;;;;;;0.20;0.20;;;5.20;93.40;;;;;;6184598;23;20001;-81
2022/01/09 00:39:09;;;;;;;0.15;0.15;;;5.20;93.40;;;;;;6157857;23;20032;-82
2022/01/09 00:41:34;;;;;;;0.20;0.20;;;5.20;93.40;;;;;;6157981;23;20337;-81
2022/01/09 00:44:02;;;;;;;0.32;0.32;;;5.30;93.40;;;;;;6157861;23;20001;-81
2022/01/09 00:46:27;;;;;;;0.20;0.20;;;5.30;93.40;;;;;;6184092;23;20044;-81
2022/01/09 00:48:53;;;;;;;0.30;0.30;;;5.20;93.40;;;;;;6184352;23;20082;-82
2022/01/09 00:51:18;;;;;;;0.22;0.22;;;5.20;93.40;;;;;;6154756;23;20079;-81
2022/01/09 00:53:44;;;;;;;0.30;0.30;;;5.20;93.40;;;;;;6132589;23;20008;-81
2022/01/09 00:56:10;;;;;;;0.30;0.25;;;5.20;93.40;;;;;;6183999;23;20008;-82
2022/01/09 00:58:36;;;;;;;0.20;0.20;;;5.20;93.40;;;;;;6184111;23;20330;-82
2022/01/09 01:01:02;;;;;;;0.57;0.47;;;5.20;93.50;;;;;;6183933;23;20001;-82
2022/01/09 01:03:28;;;;;;;0.63;0.40;;;5.30;93.50;;;;;;6155102;23;20002;-82
2022/01/09 01:05:53;;;;;;;0.47;0.40;;;5.20;93.50;;;;;;6157591;23;19998;-82
2022/01/09 01:08:19;;;;;;;0.30;0.30;;;5.20;93.50;;;;;;6130111;23;20448;-82
2022/01/09 01:10:45;;;;;;;0.50;0.40;;;5.20;93.50;;;;;;6156883;23;20008;-82
2022/01/09 01:13:11;;;;;;;0.30;0.30;;;5.20;93.50;;;;;;6157788;23;20008;-82
2022/01/09 01:15:37;;;;;;;0.40;0.38;;;5.20;93.50;;;;;;6158146;23;20413;-82
2022/01/09 01:18:03;;;;;;;0.30;0.30;;;5.20;93.40;;;;;;6158479;23;20370;-82
2022/01/09 01:20:30;;;;;;;0.30;0.30;;;5.40;93.50;;;;;;6157634;23;20013;-82
2022/01/09 01:22:58;;;;;;;0.32;0.30;;;5.30;93.40;;;;;;6156263;23;20052;-82
2022/01/09 01:25:24;;;;;;;0.63;0.50;;;5.30;93.40;;;;;;6157008;23;20016;-82
2022/01/09 01:27:50;;;;;;;0.40;0.40;;;5.30;93.40;;;;;;6157929;23;20037;-82
2022/01/09 01:30:16;;;;;;;1.00;0.55;;;5.30;93.30;;;;;;6157937;23;20059;-82
2022/01/09 01:32:42;;;;;;;0.60;0.50;;;5.40;93.30;;;;;;6157422;23;20394;-81
2022/01/09 01:35:09;;;;;;;0.68;0.50;;;5.40;93.30;;;;;;6155276;23;20048;-82
2022/01/09 01:37:38;;;;;;;0.50;0.50;;;5.50;93.30;;;;;;6184625;23;20009;-83
2022/01/09 01:40:07;;;;;;;0.40;0.40;;;5.60;93.20;;;;;;6158230;23;20032;-83
2022/01/09 01:42:32;;;;;;;2.05;0.90;;;5.60;93.20;;;;;;6158414;23;20505;-83
2022/01/09 01:44:58;;;;;;;1.42;0.70;;;5.70;93.10;;;;;;6158118;23;20091;-83
2022/01/09 01:47:24;;;;;;;3.35;0.80;;;5.80;93.00;;;;;;6157864;23;20009;-83
2022/01/09 01:49:51;;;;;;;1.52;0.70;;;5.80;92.90;;;;;;6133045;23;20068;-83
2022/01/09 01:52:27;;;;;;;5.15;0.77;;;5.90;92.90;;;;;;6133221;23;20432;-83
2022/01/09 01:54:54;;;;;;;2.58;0.57;;;5.90;92.90;;;;;;6134127;23;20001;-84
2022/01/09 01:57:20;;;;;;;1.83;0.57;;;5.90;92.80;;;;;;6157434;23;20341;-85
2022/01/09 01:59:46;;;;;;;5.25;0.90;;;6.00;92.80;;;;;;6158393;23;20037;-84
2022/01/09 02:02:12;;;;;;;2.85;0.73;;;6.00;92.80;;;;;;6154588;23;20032;-83
2022/01/09 02:04:38;;;;;;;4.53;0.98;;;6.00;92.80;;;;;;6183844;23;20076;-83
2022/01/09 02:07:04;;;;;;;3.15;0.80;;;6.00;92.80;;;;;;6155173;23;20040;-85
2022/01/09 02:09:30;;;;;;;2.95;0.75;;;6.00;92.80;;;;;;6157790;23;20009;-83
2022/01/09 02:11:56;;;;;;;4.35;0.95;;;6.00;92.80;;;;;;6154198;23;20011;-85
2022/01/09 02:14:22;;;;;;;4.32;0.80;;;6.00;92.80;;;;;;6127888;23;20002;-83
2022/01/09 02:16:50;;;;;;;3.20;0.70;;;6.00;92.80;;;;;;6131468;23;20461;-83
2022/01/09 02:19:16;;;;;;;1.33;0.63;;;5.90;92.80;;;;;;6157413;23;20434;-83
2022/01/09 02:21:44;;;;;;;2.75;0.75;;;6.00;92.90;;;;;;6131925;23;20438;-82
2022/01/09 02:24:11;;;;;;;3.55;0.80;;;6.00;92.90;;;;;;6157766;23;20001;-83
2022/01/09 02:26:38;;;;;;;3.50;0.57;;;6.10;92.90;;;;;;6133000;23;20024;-83
2022/01/09 02:29:05;;;;;;;3.75;0.73;;;6.10;92.90;;;;;;6157577;23;19997;-82
2022/01/09 02:31:32;;;;;;;4.82;1.00;;;6.10;92.90;;;;;;6157493;23;20418;-82
2022/01/09 02:33:58;;;;;;;2.00;0.98;;;6.20;92.90;;;;;;6157722;23;20012;-82
2022/01/09 02:36:24;;;;;;;5.97;1.27;;;6.30;92.90;;;;;;6154152;23;19997;-81
2022/01/09 02:38:50;;;;;;;4.63;0.98;;;6.30;92.90;;;;;;6183736;23;20005;-82
2022/01/09 02:41:16;;;;;;;5.47;1.92;;;6.30;92.80;;;;;;6184161;23;20325;-81
2022/01/09 02:43:42;;;;;;;7.72;1.73;;;6.30;92.80;;;;;;6154078;23;20005;-81
2022/01/09 02:46:16;;;;;;;8.50;1.40;;;6.40;92.80;;;;;;6157346;23;20001;-81
2022/01/09 02:48:43;;;;;;;9.75;1.70;;;6.40;92.80;;;;;;6183699;23;20012;-81
2022/01/09 02:51:17;;;;;;;5.20;1.65;;;6.40;92.80;;;;;;6154499;23;20089;-81
2022/01/09 02:53:47;;;;;;;3.95;1.45;;;6.40;92.80;;;;;;6155774;23;19997;-82
2022/01/09 02:56:13;;;;;;;6.40;1.77;;;6.40;92.80;;;;;;6157347;23;20055;-81
2022/01/09 02:58:39;;;;;;;9.73;1.65;;;6.40;92.80;;;;;;6154272;23;20001;-81
2022/01/09 03:01:07;;;;;;;6.38;1.60;;;6.40;92.80;;;;;;6132298;23;20012;-81
2022/01/09 03:03:33;;;;;;;8.90;1.67;;;6.40;92.90;;;;;;6130383;23;20333;-81
2022/01/09 03:06:00;;;;;;;4.80;1.20;;;6.40;92.90;;;;;;6183738;23;20063;-81
2022/01/09 03:08:26;;;;;;;4.25;1.45;;;6.40;92.90;;;;;;6156111;23;20043;-81
2022/01/09 03:10:52;;;;;;;6.55;1.42;;;6.40;92.90;;;;;;6156897;23;20007;-81
2022/01/09 03:13:18;;;;;;;4.65;1.17;;;6.40;92.90;;;;;;6154800;23;20005;-81
2022/01/09 03:15:44;;;;;;;3.47;1.30;;;6.40;92.90;;;;;;6156578;23;20092;-81
2022/01/09 03:18:10;;;;;;;5.57;1.10;;;6.40;92.90;;;;;;6129611;23;20006;-81
2022/01/09 03:20:36;;;;;;;4.65;1.13;;;6.40;92.90;;;;;;6156425;23;20002;-81
2022/01/09 03:23:02;;;;;;;4.57;1.10;;;6.30;92.90;;;;;;6131229;23;20016;-81
2022/01/09 03:25:28;;;;;;;5.63;1.05;;;6.30;92.90;;;;;;6184387;23;20322;-81
2022/01/09 03:27:56;;;;;;;5.57;1.05;;;6.30;93.00;;;;;;6158597;23;20059;-81
2022/01/09 03:30:22;;;;;;;4.93;1.20;;;6.30;93.00;;;;;;6184944;23;20004;-80
2022/01/09 03:32:50;;;;;;;5.07;0.80;;;6.30;93.00;;;;;;6155227;23;20001;-80
2022/01/09 03:35:19;;;;;;;3.28;0.93;;;6.40;93.00;;;;;;6155278;23;20056;-81
2022/01/09 03:37:46;;;;;;;8.73;1.35;;;6.40;93.00;;;;;;6133162;23;20015;-80
2022/01/09 03:40:15;;;;;;;5.15;1.60;;;6.30;92.90;;;;;;6158375;23;20001;-80
2022/01/09 03:42:41;;;;;;;6.07;1.50;;;6.30;92.90;;;;;;6155391;23;20016;-81
2022/01/09 03:45:08;;;;;;;7.60;1.50;;;6.30;93.00;;;;;;6185032;23;20017;-81
2022/01/09 03:47:35;;;;;;;4.05;1.25;;;6.40;93.00;;;;;;6184457;23;20333;-80
2022/01/09 03:50:04;;;;;;;5.18;1.40;;;6.30;92.90;;;;;;6184382;23;20005;-81
2022/01/09 03:52:29;;;;;;;6.60;1.70;;;6.30;92.90;;;;;;6158034;23;20200;-81
2022/01/09 03:54:55;;;;;;;5.40;1.40;;;6.40;93.00;;;;;;6184762;23;20025;-81
2022/01/09 03:57:22;;;;;;;3.92;1.38;;;6.40;92.90;;;;;;6155123;23;20002;-81
2022/01/09 03:59:48;;;;;;;6.38;1.60;;;6.40;92.90;;;;;;6131578;23;20005;-82
2022/01/09 04:02:13;;;;;;;4.38;1.20;;;6.40;92.90;;;;;;6184339;23;20005;-81
2022/01/09 04:04:39;;;;;;;4.70;1.20;;;6.30;92.90;;;;;;6154790;23;20009;-81
2022/01/09 04:07:05;;;;;;;5.25;1.48;;;6.30;92.90;;;;;;6133208;23;20378;-81
2022/01/09 04:12:15;;;;;;;3.28;1.10;;;6.30;92.90;;;;;;6160574;23;20012;-81
2022/01/09 04:14:42;;;;;;;3.05;1.02;;;6.30;92.90;;;;;;6184813;23;20005;-82
2022/01/09 04:17:13;;;;;;;4.25;1.27;;;6.30;92.90;;;;;;6155465;23;20069;-82
2022/01/09 04:19:39;;;;;;;6.28;1.40;;;6.30;92.90;;;;;;6184751;23;20372;-82
2022/01/09 04:22:05;;;;;;;3.38;1.10;;;6.30;93.00;;;;;;6158552;23;20005;-81
2022/01/09 04:24:30;;;;;;;3.45;0.90;;;6.30;93.00;;;;;;6157906;23;20016;-81
2022/01/09 04:26:56;;;;;;;3.65;0.93;;;6.30;93.00;;;;;;6157533;23;20123;-81
2022/01/09 04:29:22;;;;;;;4.85;1.20;;;6.20;93.00;;;;;;6156375;23;20002;-81
2022/01/09 04:31:47;;;;;;;5.75;1.50;;;6.20;93.00;;;;;;6157766;23;20089;-82
2022/01/09 04:34:13;;;;;;;5.55;1.00;;;6.30;93.00;;;;;;6157953;23;20024;-81
2022/01/09 04:36:39;;;;;;;6.13;1.20;;;6.30;93.00;;;;;;6184425;23;20338;-81
2022/01/09 04:39:05;;;;;;;6.97;1.95;;;6.30;92.90;;;;;;6157241;23;20009;-81
2022/01/09 04:41:31;;;;;;;8.38;1.38;;;6.30;92.90;;;;;;6155933;23;20001;-81
2022/01/09 04:43:56;;;;;;;4.47;1.23;;;6.20;92.80;;;;;;6157827;23;20005;-81
2022/01/09 04:46:31;;;;;;;6.18;1.20;;;6.20;92.90;;;;;;6157456;23;20495;-81
2022/01/09 04:48:56;;;;;;;3.22;1.05;;;6.20;92.90;;;;;;6134933;23;20005;-81
2022/01/09 04:51:23;;;;;;;4.25;1.00;;;6.20;92.90;;;;;;6184626;23;20479;-81
2022/01/09 04:53:48;;;;;;;5.00;1.20;;;6.20;92.90;;;;;;6157693;23;20001;-81
2022/01/09 04:56:14;;;;;;;4.95;1.15;;;6.10;92.80;;;;;;6157780;23;20016;-80
2022/01/09 04:58:40;;;;;;;3.33;1.02;;;6.10;92.90;;;;;;6184309;23;20008;-81
2022/01/09 05:01:06;;;;;;;4.82;1.10;;;6.20;92.80;;;;;;6157977;23;20005;-82
2022/01/09 05:03:32;;;;;;;3.30;0.95;;;6.10;92.80;;;;;;6154906;23;20001;-82
2022/01/09 05:05:58;;;;;;;3.45;0.90;;;6.10;92.80;;;;;;6157860;23;20091;-81
2022/01/09 05:08:23;;;;;;;3.25;1.10;;;6.10;92.80;;;;;;6157969;23;20025;-81
2022/01/09 05:10:49;;;;;;;5.82;1.20;;;6.10;92.80;;;;;;6158260;23;20009;-81
2022/01/09 05:13:15;;;;;;;3.22;1.08;;;6.10;92.80;;;;;;6157864;23;20001;-81
2022/01/09 05:15:41;;;;;;;4.75;1.20;;;6.10;92.80;;;;;;6158037;23;20056;-81
2022/01/09 05:18:13;;;;;;;4.43;1.20;;;6.10;92.80;;;;;;6156499;23;20437;-82
2022/01/09 05:20:38;;;;;;;2.10;0.77;;;6.10;92.80;;;;;;6184253;23;20008;-81
2022/01/09 05:23:04;;;;;;;2.35;0.88;;;6.00;92.80;;;;;;6156318;23;20005;-82
2022/01/09 05:25:30;;;;;;;2.15;0.98;;;6.00;92.70;;;;;;6156544;23;20425;-81
2022/01/09 05:27:56;;;;;;;5.07;1.10;;;6.00;92.70;;;;;;6184484;23;20021;-81
2022/01/09 05:30:22;;;;;;;3.47;1.05;;;5.90;92.70;;;;;;6158338;23;20044;-81
2022/01/09 05:32:48;;;;;;;4.03;0.90;;;6.00;92.80;;;;;;6133122;23;20092;-81
2022/01/09 05:35:14;;;;;;;4.25;0.98;;;5.90;93.00;;;;;;6157840;23;20032;-81
2022/01/09 05:37:40;;;;;;;3.65;0.95;;;5.90;92.80;;;;;;6158540;23;20009;-81
2022/01/09 05:40:06;;;;;;;3.58;0.82;;;5.80;92.80;;;;;;6154745;23;20460;-81
2022/01/09 05:42:32;;;;;;;2.75;0.68;;;5.80;92.80;;;;;;6184029;23;20000;-81
2022/01/09 05:44:58;;;;;;;4.25;1.10;;;5.70;92.80;;;;;;6132735;23;20005;-81
2022/01/09 05:47:24;;;;;;;3.28;1.30;;;5.70;92.80;;;;;;6156895;23;20039;-81
2022/01/09 05:49:51;;;;;;;3.25;0.88;;;5.70;92.80;;;;;;6184536;23;20480;-81
2022/01/09 05:52:16;;;;;;;4.55;1.10;;;5.70;92.80;;;;;;6156316;23;20008;-81
2022/01/09 05:54:42;;;;;;;5.07;1.17;;;5.70;92.80;;;;;;6157752;23;20902;-81
2022/01/09 05:57:09;;;;;;;4.82;1.02;;;5.70;92.80;;;;;;6131181;23;20125;-81
2022/01/09 05:59:35;;;;;;;3.85;0.73;;;5.70;92.80;;;;;;6157350;23;20248;-82
2022/01/09 06:02:01;;;;;;;3.22;0.90;;;5.70;92.80;;;;;;6183958;23;20005;-81
2022/01/09 06:04:26;;;;;;;5.30;0.90;;;5.70;92.80;;;;;;6183963;23;20012;-81
2022/01/09 06:06:52;;;;;;;2.20;0.82;;;5.70;92.70;;;;;;6133072;23;20447;-81
2022/01/09 06:09:18;;;;;;;3.03;0.77;;;5.70;92.70;;;;;;6154483;23;20005;-81
2022/01/09 06:11:44;;;;;;;2.90;0.90;;;5.70;92.70;;;;;;6157710;23;20012;-82
2022/01/09 06:14:09;;;;;;;1.92;0.63;;;5.70;92.70;;;;;;6157651;23;19997;-81
2022/01/09 06:16:35;;;;;;;6.30;1.23;;;5.70;92.60;;;;;;6157667;23;20021;-82
2022/01/09 06:19:01;;;;;;;1.85;0.70;;;5.70;92.60;;;;;;6155612;23;20001;-82
2022/01/09 06:21:27;;;;;;;4.18;0.88;;;5.70;92.60;;;;;;6130092;23;20000;-81
2022/01/09 06:23:53;;;;;;;3.42;0.82;;;5.60;92.60;;;;;;6157717;23;20009;-82
2022/01/09 06:26:19;;;;;;;3.50;0.90;;;5.70;92.60;;;;;;6157741;23;20303;-81
2022/01/09 06:28:44;;;;;;;4.50;1.08;;;5.60;92.60;;;;;;6154442;23;20071;-82
2022/01/09 06:31:11;;;;;;;3.10;1.10;;;5.50;92.60;;;;;;6157822;23;20429;-81
2022/01/09 06:33:37;;;;;;;3.33;0.90;;;5.60;92.60;;;;;;6157692;23;20414;-81
2022/01/09 06:36:03;;;;;;;3.10;0.98;;;5.60;92.60;;;;;;6132547;23;20040;-81
2022/01/09 06:38:29;;;;;;;3.75;1.00;;;5.50;92.60;;;;;;6158284;23;20008;-81
2022/01/09 06:40:54;;;;;;;2.92;0.88;;;5.60;92.60;;;;;;6157890;23;20015;-82
2022/01/09 06:43:20;;;;;;;2.90;0.73;;;5.60;92.50;;;;;;6157181;23;20329;-81
2022/01/09 06:45:45;;;;;;;2.78;1.10;;;5.60;92.50;;;;;;6132797;23;20306;-81
2022/01/09 06:48:11;;;;;;;2.05;0.93;;;5.50;92.50;;;;;;6155358;23;20452;-81
2022/01/09 06:50:37;;;;;;;2.17;0.85;;;5.50;92.50;;;;;;6133935;23;20021;-82
2022/01/09 06:53:03;;;;;;;3.08;1.00;;;5.50;92.50;;;;;;6184705;23;20037;-82
2022/01/09 06:55:29;;;;;;;4.55;0.85;;;5.50;92.50;;;;;;6155599;23;19998;-81
2022/01/09 06:57:55;;;;;;;3.50;1.08;;;5.40;92.50;;;;;;6156969;23;20066;-81
2022/01/09 07:00:21;;;;;;;1.63;1.00;;;5.30;92.50;;;;;;6157558;23;20001;-80
2022/01/09 07:02:47;;;;;;;2.33;0.90;;;5.30;92.50;;;;;;6130273;23;20006;-81
2022/01/09 07:05:13;;;;;;;3.53;0.75;;;5.20;92.50;;;;;;6157679;23;20032;-81
2022/01/09 07:07:39;;;;;;;4.18;0.90;;;5.20;92.60;;;;;;6154367;23;20024;-81
2022/01/09 07:10:06;;;;;;;4.75;0.90;;;5.20;92.60;;;;;;6157967;23;20015;-80
2022/01/09 07:12:31;;;;;;;1.52;0.60;;;5.20;92.60;;;;;;6132984;23;20047;-81
2022/01/09 07:14:57;;;;;;;2.58;0.90;;;5.20;92.60;;;;;;6157438;23;20088;-80
2022/01/09 07:17:23;;;;;;;1.42;0.40;;;5.20;92.60;;;;;;6157258;23;20393;-80
2022/01/09 07:19:49;;;;;;;2.70;0.88;;;5.20;92.60;;;;;;6166985;23;20029;-80
2022/01/09 07:22:15;;;;;;;2.38;0.90;;;5.20;92.50;;;;;;6157180;23;20001;-81
2022/01/09 07:24:41;;;;;;;4.85;0.90;;;5.20;92.50;;;;;;6157371;23;20084;-81
2022/01/09 07:27:07;;;;;;;2.25;0.68;;;5.20;92.50;;;;;;6130543;23;20083;-81
2022/01/09 07:29:36;;;;;;;2.58;0.88;;;5.10;92.50;;;;;;6154122;23;20012;-80
2022/01/09 07:32:03;;;;;;;3.25;0.80;;;5.10;92.60;;;;;;6157227;23;20008;-80
2022/01/09 07:34:28;;;;;;;4.53;0.90;;;5.10;92.50;;;;;;6179217;23;20009;-79
2022/01/09 07:36:54;;;;;;;3.10;0.80;;;5.20;92.50;;;;;;6157697;23;20005;-80
2022/01/09 07:39:20;;;;;;;4.00;0.90;;;5.10;92.50;;;;;;6155315;23;20001;-80
2022/01/09 07:41:46;;;;;;;3.60;1.10;;;5.10;92.40;;;;;;6183687;23;20499;-79
2022/01/09 07:44:12;;;;;;;1.30;0.40;;;5.10;92.40;;;;;;6157752;23;20040;-80
2022/01/09 07:46:38;;;;;;;2.65;0.60;;;5.10;92.40;;;;;;6129978;23;20008;-80
2022/01/09 07:49:04;;;;;;;2.47;0.77;;;5.10;92.40;;;;;;6157480;23;20005;-80
2022/01/09 07:51:29;;;;;;;2.95;0.80;;;5.00;92.40;;;;;;6157088;23;20005;-79
2022/01/09 07:53:55;;;;;;;1.52;0.60;;;5.00;92.40;;;;;;6157065;23;20048;-80
2022/01/09 07:56:21;;;;;;;2.80;0.77;;;5.00;92.40;;;;;;6155824;23;20013;-79
2022/01/09 07:58:47;;;;;;;1.80;0.73;;;4.90;92.40;;;;;;6154320;23;20013;-80
2022/01/09 08:01:12;;;;;;;1.13;0.43;;;4.80;92.40;;;;;;6157042;23;20001;-79
2022/01/09 08:03:38;;;;;;;3.33;0.85;;;4.90;92.50;;;;;;6156801;23;20012;-79
2022/01/09 08:06:04;;;;;;;2.10;0.60;;;4.90;92.50;;;;;;6156827;23;20013;-79
2022/01/09 08:08:29;;;;;;;1.95;0.60;;;4.90;92.50;;;;;;6156445;23;20009;-79
2022/01/09 08:10:56;;;;;;;2.55;1.08;;;4.80;92.50;;;;;;6153743;23;20009;-80
2022/01/09 08:13:21;;;;;;;3.88;0.60;;;4.80;92.50;;;;;;6155177;23;20001;-79
2022/01/09 08:15:47;;;;;;;1.63;0.77;;;4.80;92.50;;;;;;6184827;23;19998;-80
2022/01/09 08:18:13;;;;;;;1.25;0.60;;;4.80;92.40;;;;;;6158397;23;20329;-80
2022/01/09 08:20:39;;;;;;;2.38;0.70;;;4.80;92.40;;;;;;6158293;23;20009;-79
2022/01/09 08:23:05;;;;;;;1.73;0.70;;;4.90;92.40;;;;;;6158372;23;20417;-79
2022/01/09 08:25:31;;;;;;;1.45;0.57;;;4.80;92.40;;;;;;6159704;23;20009;-79
2022/01/09 08:27:57;;;;;;;1.35;0.50;;;4.80;92.40;;;;;;6184753;23;20006;-78
2022/01/09 08:30:24;;;;;;;2.30;0.80;;;4.80;92.40;;;;;;6158523;23;20032;-80
2022/01/09 08:32:52;;;;;;;2.35;0.55;;;4.80;92.40;;;;;;6131436;23;20092;-81
2022/01/09 08:35:19;;;;;;;0.80;0.45;;;4.90;92.40;;;;;;6159131;23;20001;-81
2022/01/09 08:37:46;;;;;;;2.20;0.75;;;4.90;92.40;;;;;;6158585;23;20040;-80
2022/01/09 08:40:17;;;;;;;3.40;0.70;;;5.00;92.30;;;;;;6132516;23;20029;-80
2022/01/09 08:42:43;;;;;;;3.47;0.60;;;5.10;92.20;;;;;;6144215;23;20005;-81
2022/01/09 08:45:16;;;;;;;1.50;0.70;;;5.00;92.20;;;;;;6205460;23;20662;-80
2022/01/09 08:47:43;;;;;;;2.20;0.50;;;5.00;92.10;;;;;;6202401;23;20017;-81
2022/01/09 08:50:11;;;;;;;2.55;0.50;;;5.00;92.10;;;;;;6180411;23;20349;-80
2022/01/09 08:52:41;;;;;;;1.50;0.50;;;5.00;92.10;;;;;;6174371;23;20013;-81
2022/01/09 08:55:07;;;;;;;3.40;0.70;;;5.00;92.10;;;;;;6178553;23;20023;-81
2022/01/09 08:57:36;;;;;;;4.68;0.98;;;5.00;92.10;;;;;;6206468;23;20008;-81
2022/01/09 09:00:05;;;;;;;2.25;0.65;;;5.00;92.10;;;;;;6175940;23;20453;-81
2022/01/09 09:02:34;;;;;;;2.00;0.52;;;4.90;92.00;;;;;;6206311;23;20013;-81
2022/01/09 09:05:00;;;;;;;1.88;0.75;;;5.00;92.10;;;;;;6150793;23;20017;-81
2022/01/09 09:07:26;;;;;;;2.05;0.70;;;5.00;92.00;;;;;;6156175;23;20019;-81
2022/01/09 09:09:52;;;;;;;4.30;0.80;;;5.00;92.10;;;;;;6137437;23;20009;-82
2022/01/09 09:12:19;;;;;;;0.85;0.50;;;5.10;92.10;;;;;;6132997;23;19997;-82
2022/01/09 09:15:44;;;;;;;0.68;0.50;;;5.10;92.00;;;;;;6166633;23;20093;-89
2022/01/09 09:18:25;;;;;;;1.90;0.70;;;5.10;92.00;;;;;;6113334;23;20342;-88
2022/01/09 09:20:51;;;;;;;2.05;0.60;;;5.20;91.90;;;;;;6063097;23;20098;-83
2022/01/09 09:23:17;;;;;;;2.00;0.85;;;5.20;91.90;;;;;;6040891;23;20011;-84
2022/01/09 09:25:47;;;;;;;3.95;0.70;;;5.30;91.90;;;;;;6065850;23;20026;-86
2022/01/09 09:28:13;;;;;;;2.97;0.57;;;5.30;91.80;;;;;;6043782;23;20447;-86
2022/01/09 09:30:42;;;;;;;2.50;0.68;;;5.40;91.80;;;;;;6048308;23;20459;-84
2022/01/09 09:33:08;;;;;;;0.98;0.50;;;5.50;91.80;;;;;;6066742;23;20014;-87
2022/01/09 09:35:37;;;;;;;1.48;0.70;;;5.50;91.70;;;;;;6089480;23;20014;-86
2022/01/09 09:38:05;;;;;;;0.77;0.35;;;5.60;91.70;;;;;;6083410;23;20046;-87
2022/01/09 09:41:24;;;;;;;2.00;0.60;;;5.60;91.60;;;;;;6067781;23;20018;-89
2022/01/09 09:44:28;;;;;;;1.38;0.60;;;5.60;91.60;;;;;;6024047;23;20083;-87
2022/01/09 09:50:56;;;;;;;2.30;0.68;;;5.70;91.60;;;;;;6067193;23;20081;-85
2022/01/09 09:54:07;;;;;;;1.42;0.90;;;5.70;91.50;;;;;;6039342;23;20015;-89
2022/01/09 09:57:13;;;;;;;1.63;0.80;;;5.60;91.50;;;;;;6063063;23;20022;-87
2022/01/09 09:59:42;;;;;;;2.30;0.82;;;5.70;91.50;;;;;;5997734;23;20078;-86
2022/01/09 10:02:26;;;;;;;2.67;0.90;;;5.80;91.50;;;;;;6019075;23;20015;-85
2022/01/09 10:08:49;;;;;;;0.85;0.57;;;5.80;91.60;;;;;;5854807;24;20033;-89
2022/01/09 11:34:48;;;;;;;4.15;1.15;;;6.60;91.10;;;;;;6094748;23;20033;-90
2022/01/09 11:37:54;;;;;;;3.47;0.90;;;6.80;91.10;;;;;;6079065;23;20045;-89
2022/01/09 11:44:25;;;;;;;3.33;0.88;;;6.70;91.00;;;;;;6123306;23;20029;-89
2022/01/09 11:47:08;;;;;;;;;;;6.60;91.00;;;;;;6044169;23;20023;-88
2022/01/09 11:50:45;;;;;;;2.70;0.63;;;6.70;91.00;;;;;;6035293;23;19909;-90
2022/01/09 11:57:31;;;;;;;2.28;0.80;;;6.50;91.10;;;;;;5950845;24;20025;-89
2022/01/09 12:00:31;;;;;;;2.10;0.70;;;6.40;91.20;;;;;;5977545;24;20024;-88
2022/01/09 12:02:58;;;;;;;1.58;0.70;;;6.50;91.30;;;;;;5903993;24;20048;-87
2022/01/09 12:05:29;;;;;;;1.40;0.52;;;6.60;91.30;;;;;;5878020;24;20100;-88
2022/01/09 12:08:08;;;;;;;;;;;6.70;91.20;;;;;;5865016;24;20049;-88
2022/01/09 12:11:11;;;;;;;2.60;0.55;;;6.80;91.20;;;;;;5851989;24;20381;-88
2022/01/09 12:13:54;;;;;;;2.38;0.80;;;6.70;91.00;;;;;;5789173;24;20023;-88
2022/01/09 12:24:45;;;;;;;3.53;0.85;;;6.50;91.00;;;;;;5549298;25;20047;-89
2022/01/09 12:35:17;;;;;;;3.55;0.85;;;6.40;91.20;;;;;;5456765;26;20415;-87
2022/01/09 12:38:04;;;;;;;2.72;1.10;;;6.40;91.20;;;;;;5468758;26;20029;-87
2022/01/09 12:40:32;;;;;;;4.28;0.60;;;6.40;91.20;;;;;;5417773;26;20119;-88
2022/01/09 12:43:09;;;;;;;2.17;0.70;;;6.50;91.30;;;;;;5403852;26;20107;-87
2022/01/09 12:45:44;;;;;;;2.30;0.75;;;6.60;91.30;;;;;;5487668;26;20185;-87
2022/01/09 12:48:40;;;;;;;2.42;0.60;;;6.70;91.20;;;;;;5491165;26;20062;-87
2022/01/09 12:51:19;;;;;;;3.05;0.73;;;6.80;91.10;;;;;;5487460;26;20467;-87
2022/01/09 12:57:53;;;;;;;4.63;1.08;;;7.10;90.80;;;;;;5611992;25;20082;-87
2022/01/09 13:03:25;;;;;;;3.75;0.75;;;7.20;90.60;;;;;;5504762;25;20036;-87
2022/01/09 13:06:33;;;;;;;3.95;1.23;;;7.30;90.50;;;;;;5465942;25;20158;-86
2022/01/09 13:09:06;;;;;;;1.80;0.77;;;7.30;90.50;;;;;;5608393;25;20113;-83
2022/01/09 13:11:35;;;;;;;2.58;0.77;;;7.40;90.50;;;;;;5648229;25;20036;-85
2022/01/09 13:14:01;;;;;;;2.75;0.70;;;7.40;90.50;;;;;;5714062;25;20031;-85
2022/01/09 13:16:48;;;;;;;2.35;0.80;;;7.40;90.50;;;;;;5712401;25;20150;-82
2022/01/09 13:19:15;;;;;;;2.15;0.80;;;7.50;90.50;;;;;;5714618;24;20021;-82
2022/01/09 13:25:36;;;;;;;3.22;0.88;;;7.60;90.40;;;;;;5576679;25;20046;-90
2022/01/09 13:28:39;;;;;;;1.38;0.77;;;7.70;90.30;;;;;;5660745;25;20080;-88
2022/01/09 13:35:38;;;;;;;3.58;1.20;;;7.70;90.10;;;;;;5552964;25;20028;-88
2022/01/09 13:38:09;;;;;;;2.80;0.98;;;7.90;90.20;;;;;;5567368;25;20019;-87
2022/01/09 13:40:35;;;;;;;1.80;0.73;;;7.90;90.10;;;;;;5496825;25;20028;-86
2022/01/09 13:43:03;;;;;;;3.13;0.82;;;8.10;90.00;;;;;;5548887;25;20083;-88
2022/01/09 13:45:41;;;;;;;5.15;1.00;;;8.10;89.90;;;;;;5586435;25;20027;-88
2022/01/09 13:48:42;;;;;;;3.40;0.80;;;8.30;89.90;;;;;;5570662;25;20027;-88
2022/01/09 13:51:58;;;;;;;4.03;1.10;;;8.40;89.90;;;;;;5605767;25;20123;-87
2022/01/09 13:55:03;;;;;;;4.05;0.85;;;8.10;89.70;;;;;;5592362;25;20019;-87
2022/01/09 13:57:47;;;;;;;2.78;0.98;;;8.20;89.60;;;;;;5590346;25;20031;-88
2022/01/09 14:04:33;;;;;;;4.05;0.80;;;8.00;89.90;;;;;;5687739;25;20017;-88
2022/01/09 14:09:58;;;;;;;3.75;0.70;;;7.90;90.10;;;;;;5659834;25;20021;-88
2022/01/09 14:12:27;;;;;;;2.30;1.10;;;8.00;90.10;;;;;;5634927;25;20447;-87
2022/01/09 14:15:46;;;;;;;2.33;0.85;;;8.00;90.00;;;;;;5657223;25;20116;-89
2022/01/09 14:18:56;;;;;;;1.88;0.80;;;8.00;89.90;;;;;;5687105;25;20035;-88
2022/01/09 14:25:39;;;;;;;2.15;0.90;;;8.00;90.00;;;;;;5544977;25;20084;-88
2022/01/09 14:28:14;;;;;;;2.47;0.85;;;8.00;90.00;;;;;;5561389;25;20022;-88
2022/01/09 14:31:05;;;;;;;1.67;0.70;;;8.10;89.80;;;;;;5568226;25;20035;-87
2022/01/09 14:33:55;;;;;;;2.58;0.80;;;8.10;89.80;;;;;;5646550;25;20026;-88
2022/01/09 14:36:31;;;;;;;3.75;0.98;;;8.10;89.60;;;;;;5587081;25;20027;-87
2022/01/09 14:39:22;;;;;;;3.60;1.10;;;8.00;89.70;;;;;;5584656;25;20090;-88
2022/01/09 14:41:48;;;;;;;1.05;0.52;;;7.90;89.80;;;;;;5641262;25;20080;-88
2022/01/09 14:44:14;;;;;;;2.03;0.57;;;7.90;90.00;;;;;;5723014;24;20021;-86
2022/01/09 14:46:40;;;;;;;2.65;0.68;;;7.80;90.10;;;;;;5691482;25;20340;-86
2022/01/09 14:49:35;;;;;;;1.00;0.50;;;8.10;90.20;;;;;;5713435;25;20025;-85
2022/01/09 14:52:02;;;;;;;1.05;0.50;;;8.10;89.70;;;;;;5717238;24;20058;-85
2022/01/09 14:54:29;;;;;;;3.60;0.70;;;8.10;89.00;;;;;;5766490;24;20133;-86
2022/01/09 14:56:55;;;;;;;2.15;0.68;;;8.10;88.90;;;;;;5774146;24;20044;-86
2022/01/09 14:59:20;;;;;;;2.15;0.60;;;7.90;88.70;;;;;;5786099;24;20542;-88
2022/01/09 15:05:37;;;;;;;1.58;0.50;;;7.60;89.60;;;;;;5838281;24;20033;-88
2022/01/09 15:08:03;;;;;;;1.35;0.60;;;7.40;89.80;;;;;;5786323;24;20045;-85
2022/01/09 15:10:30;;;;;;;2.20;0.63;;;7.30;90.10;;;;;;5864635;24;20024;-85
2022/01/09 15:16:43;;;;;;;1.50;0.63;;;6.80;90.40;;;;;;5947060;24;20079;-83
2022/01/09 15:19:09;;;;;;;1.17;0.50;;;6.70;90.60;;;;;;5961521;24;20402;-80
2022/01/09 15:21:35;;;;;;;1.65;0.70;;;6.60;90.70;;;;;;5996112;23;20008;-83
2022/01/09 15:24:00;;;;;;;0.60;0.43;;;6.50;90.80;;;;;;5994814;24;20016;-82
2022/01/09 15:26:26;;;;;;;1.50;0.50;;;6.50;90.90;;;;;;5989635;24;20055;-81
2022/01/09 15:28:52;;;;;;;1.00;0.52;;;6.40;91.00;;;;;;5990982;23;20036;-84
2022/01/09 15:31:18;;;;;;;2.00;0.55;;;6.30;91.00;;;;;;5978357;24;20023;-84
2022/01/09 15:33:50;;;;;;;1.77;0.50;;;6.20;91.10;;;;;;5978052;23;20456;-88
2022/01/09 15:36:16;;;;;;;1.42;0.52;;;6.10;91.00;;;;;;5983379;24;20023;-78
2022/01/09 15:38:42;;;;;;;2.40;0.52;;;6.10;91.10;;;;;;5957385;23;20423;-78
2022/01/09 15:41:09;;;;;;;1.45;0.50;;;6.10;91.20;;;;;;6009247;23;20028;-78
2022/01/09 15:43:56;;;;;;;2.05;0.60;;;6.00;91.20;;;;;;5989411;23;20011;-84